sensor_id;sensor_type;location;lat;lon;timestamp;P1;durP1;ratioP1;P2;durP2;ratioP2
45887;SDS011;31595;51.418;7.572;2023-02-08T00:01:48;22.58;;;13.73;;
45887;SDS011;31595;51.418;7.572;2023-02-08T00:04:16;17.35;;;11.98;;
45887;SDS011;31595;51.418;7.572;2023-02-08T00:06:43;18.02;;;11.48;;
45887;SDS011;31595;51.418;7.572;2023-02-08T00:09:13;19.35;;;11.55;;
45887;SDS011;31595;51.418;7.572;2023-02-08T00:11:40;17.83;;;11.73;;
45887;SDS011;31595;51.418;7.572;2023-02-08T00:14:08;17.63;;;11.60;;
45887;SDS011;31595;51.418;7.572;2023-02-08T00:16:36;15.93;;;10.80;;
45887;SDS011;31595;51.418;7.572;2023-02-08T00:19:04;17.17;;;11.27;;
45887;SDS011;31595;51.418;7.572;2023-02-08T00:21:31;17.77;;;10.95;;
45887;SDS011;31595;51.418;7.572;2023-02-08T00:23:58;16.38;;;10.50;;
45887;SDS011;31595;51.418;7.572;2023-02-08T00:26:25;15.20;;;10.60;;
45887;SDS011;31595;51.418;7.572;2023-02-08T00:28:53;14.65;;;10.63;;
45887;SDS011;31595;51.418;7.572;2023-02-08T00:31:20;15.27;;;10.07;;
45887;SDS011;31595;51.418;7.572;2023-02-08T00:33:48;18.92;;;11.25;;
45887;SDS011;31595;51.418;7.572;2023-02-08T00:36:16;18.60;;;10.57;;
45887;SDS011;31595;51.418;7.572;2023-02-08T00:38:43;16.02;;;11.13;;
45887;SDS011;31595;51.418;7.572;2023-02-08T00:41:10;18.83;;;11.98;;
45887;SDS011;31595;51.418;7.572;2023-02-08T00:43:41;18.50;;;11.25;;
45887;SDS011;31595;51.418;7.572;2023-02-08T00:46:08;19.25;;;12.50;;
45887;SDS011;31595;51.418;7.572;2023-02-08T00:48:35;18.75;;;12.05;;
45887;SDS011;31595;51.418;7.572;2023-02-08T00:51:05;18.33;;;12.32;;
45887;SDS011;31595;51.418;7.572;2023-02-08T00:53:34;17.48;;;12.10;;
45887;SDS011;31595;51.418;7.572;2023-02-08T00:56:02;17.55;;;10.75;;
45887;SDS011;31595;51.418;7.572;2023-02-08T00:58:30;18.02;;;10.73;;
45887;SDS011;31595;51.418;7.572;2023-02-08T01:00:57;18.95;;;11.45;;
45887;SDS011;31595;51.418;7.572;2023-02-08T01:03:24;15.07;;;9.73;;
45887;SDS011;31595;51.418;7.572;2023-02-08T01:05:52;15.93;;;10.10;;
45887;SDS011;31595;51.418;7.572;2023-02-08T01:08:21;15.52;;;9.65;;
45887;SDS011;31595;51.418;7.572;2023-02-08T01:10:48;12.82;;;8.70;;
45887;SDS011;31595;51.418;7.572;2023-02-08T01:13:15;10.00;;;8.00;;
45887;SDS011;31595;51.418;7.572;2023-02-08T01:15:42;13.68;;;8.48;;
45887;SDS011;31595;51.418;7.572;2023-02-08T01:18:10;12.30;;;6.97;;
45887;SDS011;31595;51.418;7.572;2023-02-08T01:20:37;10.88;;;7.63;;
45887;SDS011;31595;51.418;7.572;2023-02-08T01:25:35;9.63;;;6.90;;
45887;SDS011;31595;51.418;7.572;2023-02-08T01:28:03;10.23;;;7.00;;
45887;SDS011;31595;51.418;7.572;2023-02-08T01:30:33;9.82;;;6.80;;
45887;SDS011;31595;51.418;7.572;2023-02-08T01:35:30;10.75;;;6.90;;
45887;SDS011;31595;51.418;7.572;2023-02-08T01:37:57;10.45;;;6.53;;
45887;SDS011;31595;51.418;7.572;2023-02-08T01:40:28;10.05;;;6.50;;
45887;SDS011;31595;51.418;7.572;2023-02-08T01:42:57;10.30;;;6.75;;
45887;SDS011;31595;51.418;7.572;2023-02-08T01:45:25;9.40;;;5.95;;
45887;SDS011;31595;51.418;7.572;2023-02-08T01:47:56;8.85;;;6.28;;
45887;SDS011;31595;51.418;7.572;2023-02-08T01:50:30;11.25;;;6.75;;
45887;SDS011;31595;51.418;7.572;2023-02-08T01:53:01;10.93;;;6.75;;
45887;SDS011;31595;51.418;7.572;2023-02-08T01:55:30;10.45;;;7.47;;
45887;SDS011;31595;51.418;7.572;2023-02-08T01:58:03;11.50;;;8.40;;
45887;SDS011;31595;51.418;7.572;2023-02-08T02:00:34;10.95;;;8.10;;
45887;SDS011;31595;51.418;7.572;2023-02-08T02:03:01;10.55;;;7.65;;
45887;SDS011;31595;51.418;7.572;2023-02-08T02:05:34;13.43;;;7.30;;
45887;SDS011;31595;51.418;7.572;2023-02-08T02:08:07;9.50;;;7.07;;
45887;SDS011;31595;51.418;7.572;2023-02-08T02:10:38;12.10;;;7.88;;
45887;SDS011;31595;51.418;7.572;2023-02-08T02:13:08;10.85;;;7.10;;
45887;SDS011;31595;51.418;7.572;2023-02-08T02:15:38;9.82;;;6.78;;
45887;SDS011;31595;51.418;7.572;2023-02-08T02:18:06;10.45;;;7.13;;
45887;SDS011;31595;51.418;7.572;2023-02-08T02:33:00;9.45;;;5.75;;
45887;SDS011;31595;51.418;7.572;2023-02-08T02:35:44;10.20;;;6.75;;
45887;SDS011;31595;51.418;7.572;2023-02-08T02:38:19;12.38;;;7.38;;
45887;SDS011;31595;51.418;7.572;2023-02-08T02:40:59;11.05;;;7.28;;
45887;SDS011;31595;51.418;7.572;2023-02-08T02:43:37;11.35;;;6.68;;
45887;SDS011;31595;51.418;7.572;2023-02-08T02:46:13;10.13;;;7.07;;
45887;SDS011;31595;51.418;7.572;2023-02-08T02:48:50;10.75;;;7.70;;
45887;SDS011;31595;51.418;7.572;2023-02-08T02:51:24;13.02;;;7.88;;
45887;SDS011;31595;51.418;7.572;2023-02-08T02:53:56;12.80;;;7.15;;
45887;SDS011;31595;51.418;7.572;2023-02-08T02:56:28;10.80;;;7.75;;
45887;SDS011;31595;51.418;7.572;2023-02-08T02:59:01;13.98;;;8.45;;
45887;SDS011;31595;51.418;7.572;2023-02-08T03:01:31;10.38;;;7.07;;
45887;SDS011;31595;51.418;7.572;2023-02-08T03:04:10;10.63;;;7.20;;
45887;SDS011;31595;51.418;7.572;2023-02-08T03:06:40;9.48;;;6.47;;
45887;SDS011;31595;51.418;7.572;2023-02-08T03:09:25;8.93;;;5.70;;
45887;SDS011;31595;51.418;7.572;2023-02-08T03:12:04;8.65;;;5.78;;
45887;SDS011;31595;51.418;7.572;2023-02-08T03:14:44;10.75;;;6.53;;
45887;SDS011;31595;51.418;7.572;2023-02-08T03:17:30;9.10;;;6.18;;
45887;SDS011;31595;51.418;7.572;2023-02-08T03:20:12;9.00;;;5.88;;
45887;SDS011;31595;51.418;7.572;2023-02-08T03:22:44;8.88;;;6.20;;
45887;SDS011;31595;51.418;7.572;2023-02-08T03:25:18;9.20;;;6.03;;
45887;SDS011;31595;51.418;7.572;2023-02-08T03:27:51;9.00;;;5.93;;
45887;SDS011;31595;51.418;7.572;2023-02-08T03:30:27;8.68;;;6.28;;
45887;SDS011;31595;51.418;7.572;2023-02-08T03:32:59;9.95;;;6.40;;
45887;SDS011;31595;51.418;7.572;2023-02-08T03:35:35;9.57;;;6.22;;
45887;SDS011;31595;51.418;7.572;2023-02-08T03:38:07;10.57;;;6.55;;
45887;SDS011;31595;51.418;7.572;2023-02-08T03:40:37;10.95;;;6.72;;
45887;SDS011;31595;51.418;7.572;2023-02-08T03:43:08;10.38;;;7.07;;
45887;SDS011;31595;51.418;7.572;2023-02-08T03:45:42;10.27;;;6.28;;
45887;SDS011;31595;51.418;7.572;2023-02-08T03:48:14;11.18;;;6.68;;
45887;SDS011;31595;51.418;7.572;2023-02-08T03:50:48;10.55;;;7.00;;
45887;SDS011;31595;51.418;7.572;2023-02-08T03:53:19;11.23;;;6.40;;
45887;SDS011;31595;51.418;7.572;2023-02-08T03:55:49;11.45;;;7.32;;
45887;SDS011;31595;51.418;7.572;2023-02-08T03:58:22;10.57;;;6.85;;
45887;SDS011;31595;51.418;7.572;2023-02-08T04:00:55;10.10;;;6.65;;
45887;SDS011;31595;51.418;7.572;2023-02-08T04:03:28;9.48;;;6.55;;
45887;SDS011;31595;51.418;7.572;2023-02-08T04:05:58;10.10;;;5.90;;
45887;SDS011;31595;51.418;7.572;2023-02-08T04:08:26;9.45;;;6.18;;
45887;SDS011;31595;51.418;7.572;2023-02-08T04:10:53;9.32;;;6.30;;
45887;SDS011;31595;51.418;7.572;2023-02-08T04:13:20;8.55;;;6.07;;
45887;SDS011;31595;51.418;7.572;2023-02-08T04:15:48;8.30;;;5.50;;
45887;SDS011;31595;51.418;7.572;2023-02-08T04:18:15;10.57;;;5.65;;
45887;SDS011;31595;51.418;7.572;2023-02-08T04:20:42;8.57;;;5.68;;
45887;SDS011;31595;51.418;7.572;2023-02-08T04:23:11;7.38;;;5.13;;
45887;SDS011;31595;51.418;7.572;2023-02-08T04:25:38;8.85;;;5.97;;
45887;SDS011;31595;51.418;7.572;2023-02-08T04:28:05;11.15;;;6.07;;
45887;SDS011;31595;51.418;7.572;2023-02-08T04:30:33;6.72;;;4.93;;
45887;SDS011;31595;51.418;7.572;2023-02-08T04:33:00;9.45;;;6.22;;
45887;SDS011;31595;51.418;7.572;2023-02-08T04:35:28;10.13;;;6.78;;
45887;SDS011;31595;51.418;7.572;2023-02-08T04:37:55;10.95;;;6.20;;
45887;SDS011;31595;51.418;7.572;2023-02-08T04:40:24;7.97;;;5.53;;
45887;SDS011;31595;51.418;7.572;2023-02-08T04:42:51;10.00;;;5.93;;
45887;SDS011;31595;51.418;7.572;2023-02-08T04:45:18;7.90;;;5.32;;
45887;SDS011;31595;51.418;7.572;2023-02-08T04:47:46;8.90;;;6.03;;
45887;SDS011;31595;51.418;7.572;2023-02-08T04:50:13;9.35;;;5.75;;
45887;SDS011;31595;51.418;7.572;2023-02-08T04:52:40;10.13;;;6.28;;
45887;SDS011;31595;51.418;7.572;2023-02-08T04:55:08;11.45;;;6.90;;
45887;SDS011;31595;51.418;7.572;2023-02-08T04:57:36;8.80;;;5.82;;
45887;SDS011;31595;51.418;7.572;2023-02-08T05:00:04;9.18;;;6.50;;
45887;SDS011;31595;51.418;7.572;2023-02-08T05:02:32;9.77;;;6.28;;
45887;SDS011;31595;51.418;7.572;2023-02-08T05:04:59;11.70;;;7.38;;
45887;SDS011;31595;51.418;7.572;2023-02-08T05:07:26;10.82;;;6.85;;
45887;SDS011;31595;51.418;7.572;2023-02-08T05:09:53;9.10;;;6.32;;
45887;SDS011;31595;51.418;7.572;2023-02-08T05:12:21;9.93;;;6.85;;
45887;SDS011;31595;51.418;7.572;2023-02-08T05:14:49;11.75;;;6.78;;
45887;SDS011;31595;51.418;7.572;2023-02-08T05:17:16;10.73;;;6.47;;
45887;SDS011;31595;51.418;7.572;2023-02-08T05:19:44;10.07;;;6.90;;
45887;SDS011;31595;51.418;7.572;2023-02-08T05:22:11;10.57;;;7.07;;
45887;SDS011;31595;51.418;7.572;2023-02-08T05:24:38;10.93;;;7.10;;
45887;SDS011;31595;51.418;7.572;2023-02-08T05:27:05;9.95;;;6.88;;
45887;SDS011;31595;51.418;7.572;2023-02-08T05:29:33;10.98;;;7.05;;
45887;SDS011;31595;51.418;7.572;2023-02-08T05:32:01;12.07;;;7.00;;
45887;SDS011;31595;51.418;7.572;2023-02-08T05:34:29;11.02;;;7.15;;
45887;SDS011;31595;51.418;7.572;2023-02-08T05:36:56;10.95;;;7.15;;
45887;SDS011;31595;51.418;7.572;2023-02-08T05:39:23;11.05;;;7.07;;
45887;SDS011;31595;51.418;7.572;2023-02-08T05:41:50;11.25;;;7.50;;
45887;SDS011;31595;51.418;7.572;2023-02-08T05:44:18;11.23;;;7.05;;
45887;SDS011;31595;51.418;7.572;2023-02-08T05:46:45;11.52;;;7.22;;
45887;SDS011;31595;51.418;7.572;2023-02-08T05:49:14;11.10;;;7.20;;
45887;SDS011;31595;51.418;7.572;2023-02-08T05:51:41;15.48;;;8.80;;
45887;SDS011;31595;51.418;7.572;2023-02-08T05:54:08;12.02;;;8.10;;
45887;SDS011;31595;51.418;7.572;2023-02-08T05:56:36;11.90;;;6.70;;
45887;SDS011;31595;51.418;7.572;2023-02-08T05:59:03;11.90;;;6.85;;
45887;SDS011;31595;51.418;7.572;2023-02-08T06:01:31;9.88;;;6.82;;
45887;SDS011;31595;51.418;7.572;2023-02-08T06:03:58;9.55;;;6.40;;
45887;SDS011;31595;51.418;7.572;2023-02-08T06:06:30;11.13;;;6.60;;
45887;SDS011;31595;51.418;7.572;2023-02-08T06:08:58;13.85;;;9.70;;
45887;SDS011;31595;51.418;7.572;2023-02-08T06:11:29;12.45;;;8.18;;
45887;SDS011;31595;51.418;7.572;2023-02-08T06:13:56;11.48;;;7.47;;
45887;SDS011;31595;51.418;7.572;2023-02-08T06:16:23;12.23;;;9.75;;
45887;SDS011;31595;51.418;7.572;2023-02-08T06:18:51;10.27;;;7.47;;
45887;SDS011;31595;51.418;7.572;2023-02-08T06:21:18;11.68;;;6.68;;
45887;SDS011;31595;51.418;7.572;2023-02-08T06:23:50;8.35;;;6.05;;
45887;SDS011;31595;51.418;7.572;2023-02-08T06:26:17;9.13;;;6.45;;
45887;SDS011;31595;51.418;7.572;2023-02-08T06:28:44;8.25;;;5.55;;
45887;SDS011;31595;51.418;7.572;2023-02-08T06:31:12;11.18;;;6.18;;
45887;SDS011;31595;51.418;7.572;2023-02-08T06:33:39;9.10;;;5.63;;
45887;SDS011;31595;51.418;7.572;2023-02-08T06:36:06;9.32;;;5.82;;
45887;SDS011;31595;51.418;7.572;2023-02-08T06:38:34;9.20;;;5.75;;
45887;SDS011;31595;51.418;7.572;2023-02-08T06:41:03;10.07;;;5.60;;
45887;SDS011;31595;51.418;7.572;2023-02-08T06:43:30;11.07;;;6.47;;
45887;SDS011;31595;51.418;7.572;2023-02-08T06:45:57;10.02;;;5.53;;
45887;SDS011;31595;51.418;7.572;2023-02-08T06:48:25;7.82;;;5.38;;
45887;SDS011;31595;51.418;7.572;2023-02-08T06:50:52;9.13;;;5.93;;
45887;SDS011;31595;51.418;7.572;2023-02-08T06:53:20;7.15;;;4.78;;
45887;SDS011;31595;51.418;7.572;2023-02-08T06:55:47;10.23;;;6.22;;
45887;SDS011;31595;51.418;7.572;2023-02-08T06:58:16;9.85;;;5.95;;
45887;SDS011;31595;51.418;7.572;2023-02-08T07:00:44;8.57;;;5.80;;
45887;SDS011;31595;51.418;7.572;2023-02-08T07:03:12;8.38;;;5.53;;
45887;SDS011;31595;51.418;7.572;2023-02-08T07:05:40;12.32;;;7.55;;
45887;SDS011;31595;51.418;7.572;2023-02-08T07:08:08;10.65;;;5.82;;
45887;SDS011;31595;51.418;7.572;2023-02-08T07:10:36;10.88;;;6.78;;
45887;SDS011;31595;51.418;7.572;2023-02-08T07:13:04;10.50;;;6.28;;
45887;SDS011;31595;51.418;7.572;2023-02-08T07:15:33;10.02;;;6.55;;
45887;SDS011;31595;51.418;7.572;2023-02-08T07:18:01;9.95;;;6.35;;
45887;SDS011;31595;51.418;7.572;2023-02-08T07:20:28;11.05;;;6.40;;
45887;SDS011;31595;51.418;7.572;2023-02-08T07:22:55;8.25;;;6.03;;
45887;SDS011;31595;51.418;7.572;2023-02-08T07:25:23;9.60;;;6.18;;
45887;SDS011;31595;51.418;7.572;2023-02-08T07:27:51;9.45;;;5.55;;
45887;SDS011;31595;51.418;7.572;2023-02-08T07:30:18;9.15;;;6.43;;
45887;SDS011;31595;51.418;7.572;2023-02-08T07:32:46;11.68;;;6.90;;
45887;SDS011;31595;51.418;7.572;2023-02-08T07:35:14;10.65;;;6.07;;
45887;SDS011;31595;51.418;7.572;2023-02-08T07:37:41;9.90;;;5.85;;
45887;SDS011;31595;51.418;7.572;2023-02-08T07:40:09;10.25;;;6.50;;
45887;SDS011;31595;51.418;7.572;2023-02-08T07:42:37;10.38;;;6.85;;
45887;SDS011;31595;51.418;7.572;2023-02-08T07:45:04;9.77;;;6.53;;
45887;SDS011;31595;51.418;7.572;2023-02-08T07:47:31;11.43;;;6.95;;
45887;SDS011;31595;51.418;7.572;2023-02-08T07:50:00;8.38;;;6.30;;
45887;SDS011;31595;51.418;7.572;2023-02-08T07:52:27;12.40;;;7.35;;
45887;SDS011;31595;51.418;7.572;2023-02-08T07:54:55;9.75;;;7.22;;
45887;SDS011;31595;51.418;7.572;2023-02-08T07:57:22;9.50;;;6.82;;
45887;SDS011;31595;51.418;7.572;2023-02-08T07:59:49;9.80;;;6.90;;
45887;SDS011;31595;51.418;7.572;2023-02-08T08:02:16;9.18;;;6.28;;
45887;SDS011;31595;51.418;7.572;2023-02-08T08:04:44;10.05;;;7.25;;
45887;SDS011;31595;51.418;7.572;2023-02-08T08:07:13;10.48;;;6.90;;
45887;SDS011;31595;51.418;7.572;2023-02-08T08:09:40;11.85;;;7.57;;
45887;SDS011;31595;51.418;7.572;2023-02-08T08:12:07;11.98;;;8.18;;
45887;SDS011;31595;51.418;7.572;2023-02-08T08:14:34;16.15;;;8.90;;
45887;SDS011;31595;51.418;7.572;2023-02-08T08:17:02;12.30;;;8.70;;
45887;SDS011;31595;51.418;7.572;2023-02-08T08:19:29;11.40;;;8.23;;
45887;SDS011;31595;51.418;7.572;2023-02-08T08:21:56;11.02;;;8.95;;
45887;SDS011;31595;51.418;7.572;2023-02-08T08:24:25;12.00;;;8.88;;
45887;SDS011;31595;51.418;7.572;2023-02-08T08:26:52;13.40;;;9.00;;
45887;SDS011;31595;51.418;7.572;2023-02-08T08:29:20;12.48;;;9.88;;
45887;SDS011;31595;51.418;7.572;2023-02-08T08:31:47;12.38;;;9.30;;
45887;SDS011;31595;51.418;7.572;2023-02-08T08:34:14;13.18;;;9.63;;
45887;SDS011;31595;51.418;7.572;2023-02-08T08:36:42;15.38;;;11.30;;
45887;SDS011;31595;51.418;7.572;2023-02-08T08:39:09;15.40;;;10.45;;
45887;SDS011;31595;51.418;7.572;2023-02-08T08:41:38;13.00;;;10.15;;
45887;SDS011;31595;51.418;7.572;2023-02-08T08:44:05;15.63;;;12.10;;
45887;SDS011;31595;51.418;7.572;2023-02-08T08:46:32;12.15;;;8.38;;
45887;SDS011;31595;51.418;7.572;2023-02-08T08:48:59;11.68;;;7.70;;
45887;SDS011;31595;51.418;7.572;2023-02-08T08:51:27;10.20;;;8.20;;
45887;SDS011;31595;51.418;7.572;2023-02-08T08:53:57;12.18;;;9.35;;
45887;SDS011;31595;51.418;7.572;2023-02-08T08:56:24;9.38;;;7.75;;
45887;SDS011;31595;51.418;7.572;2023-02-08T08:58:52;10.68;;;8.30;;
45887;SDS011;31595;51.418;7.572;2023-02-08T09:01:20;8.18;;;7.20;;
45887;SDS011;31595;51.418;7.572;2023-02-08T09:03:47;9.80;;;7.97;;
45887;SDS011;31595;51.418;7.572;2023-02-08T09:06:14;10.05;;;8.20;;
45887;SDS011;31595;51.418;7.572;2023-02-08T09:08:42;9.25;;;7.35;;
45887;SDS011;31595;51.418;7.572;2023-02-08T09:11:10;11.52;;;7.78;;
45887;SDS011;31595;51.418;7.572;2023-02-08T09:13:39;11.05;;;8.60;;
45887;SDS011;31595;51.418;7.572;2023-02-08T09:16:09;10.40;;;9.40;;
45887;SDS011;31595;51.418;7.572;2023-02-08T09:18:39;11.85;;;9.70;;
45887;SDS011;31595;51.418;7.572;2023-02-08T09:21:07;11.27;;;9.20;;
45887;SDS011;31595;51.418;7.572;2023-02-08T09:23:36;10.63;;;9.35;;
45887;SDS011;31595;51.418;7.572;2023-02-08T09:26:04;12.52;;;8.80;;
45887;SDS011;31595;51.418;7.572;2023-02-08T09:28:33;10.35;;;9.27;;
45887;SDS011;31595;51.418;7.572;2023-02-08T09:31:06;9.68;;;8.63;;
45887;SDS011;31595;51.418;7.572;2023-02-08T09:33:35;9.52;;;8.57;;
45887;SDS011;31595;51.418;7.572;2023-02-08T09:36:02;9.95;;;8.60;;
45887;SDS011;31595;51.418;7.572;2023-02-08T09:38:30;10.00;;;8.90;;
45887;SDS011;31595;51.418;7.572;2023-02-08T09:41:00;11.60;;;9.85;;
45887;SDS011;31595;51.418;7.572;2023-02-08T09:43:39;11.13;;;8.63;;
45887;SDS011;31595;51.418;7.572;2023-02-08T09:46:12;11.23;;;10.23;;
45887;SDS011;31595;51.418;7.572;2023-02-08T09:48:45;12.38;;;11.30;;
45887;SDS011;31595;51.418;7.572;2023-02-08T09:51:16;14.20;;;10.38;;
45887;SDS011;31595;51.418;7.572;2023-02-08T09:53:52;11.35;;;10.13;;
45887;SDS011;31595;51.418;7.572;2023-02-08T09:56:25;9.18;;;8.00;;
45887;SDS011;31595;51.418;7.572;2023-02-08T09:58:55;8.23;;;7.45;;
45887;SDS011;31595;51.418;7.572;2023-02-08T10:01:25;11.00;;;9.80;;
45887;SDS011;31595;51.418;7.572;2023-02-08T10:03:56;11.88;;;10.68;;
45887;SDS011;31595;51.418;7.572;2023-02-08T10:06:27;9.50;;;8.60;;
45887;SDS011;31595;51.418;7.572;2023-02-08T10:08:56;9.73;;;7.68;;
45887;SDS011;31595;51.418;7.572;2023-02-08T10:14:04;8.10;;;7.30;;
45887;SDS011;31595;51.418;7.572;2023-02-08T10:16:46;12.23;;;8.95;;
45887;SDS011;31595;51.418;7.572;2023-02-08T10:19:28;11.23;;;9.57;;
45887;SDS011;31595;51.418;7.572;2023-02-08T10:22:18;14.18;;;9.80;;
45887;SDS011;31595;51.418;7.572;2023-02-08T10:25:06;12.45;;;9.13;;
45887;SDS011;31595;51.418;7.572;2023-02-08T10:27:47;10.50;;;7.35;;
45887;SDS011;31595;51.418;7.572;2023-02-08T10:30:30;9.02;;;7.13;;
45887;SDS011;31595;51.418;7.572;2023-02-08T10:33:10;7.47;;;6.78;;
45887;SDS011;31595;51.418;7.572;2023-02-08T10:35:44;7.85;;;7.05;;
45887;SDS011;31595;51.418;7.572;2023-02-08T10:38:21;8.18;;;6.70;;
45887;SDS011;31595;51.418;7.572;2023-02-08T10:40:50;8.10;;;7.30;;
45887;SDS011;31595;51.418;7.572;2023-02-08T10:43:23;8.30;;;7.35;;
45887;SDS011;31595;51.418;7.572;2023-02-08T10:46:00;7.95;;;6.70;;
45887;SDS011;31595;51.418;7.572;2023-02-08T10:48:34;8.93;;;7.38;;
45887;SDS011;31595;51.418;7.572;2023-02-08T10:51:12;7.55;;;6.18;;
45887;SDS011;31595;51.418;7.572;2023-02-08T10:53:42;6.90;;;6.28;;
45887;SDS011;31595;51.418;7.572;2023-02-08T10:56:13;6.95;;;6.22;;
45887;SDS011;31595;51.418;7.572;2023-02-08T10:58:54;9.63;;;6.28;;
45887;SDS011;31595;51.418;7.572;2023-02-08T11:01:21;7.45;;;6.30;;
45887;SDS011;31595;51.418;7.572;2023-02-08T11:04:01;6.30;;;5.68;;
45887;SDS011;31595;51.418;7.572;2023-02-08T11:06:31;7.43;;;5.53;;
45887;SDS011;31595;51.418;7.572;2023-02-08T11:08:58;5.32;;;4.70;;
45887;SDS011;31595;51.418;7.572;2023-02-08T11:11:26;5.70;;;5.07;;
45887;SDS011;31595;51.418;7.572;2023-02-08T11:14:04;8.60;;;5.03;;
45887;SDS011;31595;51.418;7.572;2023-02-08T11:16:34;6.47;;;4.20;;
45887;SDS011;31595;51.418;7.572;2023-02-08T11:19:03;4.60;;;3.83;;
45887;SDS011;31595;51.418;7.572;2023-02-08T11:21:34;6.68;;;4.15;;
45887;SDS011;31595;51.418;7.572;2023-02-08T11:24:06;8.10;;;4.00;;
45887;SDS011;31595;51.418;7.572;2023-02-08T11:26:48;8.05;;;4.22;;
45887;SDS011;31595;51.418;7.572;2023-02-08T11:29:16;6.03;;;3.67;;
45887;SDS011;31595;51.418;7.572;2023-02-08T11:31:55;4.10;;;3.50;;
45887;SDS011;31595;51.418;7.572;2023-02-08T11:34:24;4.57;;;4.18;;
45887;SDS011;31595;51.418;7.572;2023-02-08T11:36:56;5.32;;;3.90;;
45887;SDS011;31595;51.418;7.572;2023-02-08T11:39:25;11.48;;;4.55;;
45887;SDS011;31595;51.418;7.572;2023-02-08T11:41:56;5.35;;;4.07;;
45887;SDS011;31595;51.418;7.572;2023-02-08T11:44:26;4.35;;;3.95;;
45887;SDS011;31595;51.418;7.572;2023-02-08T11:46:57;7.15;;;3.50;;
45887;SDS011;31595;51.418;7.572;2023-02-08T11:49:30;11.45;;;4.18;;
45887;SDS011;31595;51.418;7.572;2023-02-08T11:52:04;9.43;;;4.35;;
45887;SDS011;31595;51.418;7.572;2023-02-08T11:54:34;5.82;;;3.97;;
45887;SDS011;31595;51.418;7.572;2023-02-08T11:57:13;7.15;;;5.00;;
45887;SDS011;31595;51.418;7.572;2023-02-08T11:59:43;5.07;;;4.50;;
45887;SDS011;31595;51.418;7.572;2023-02-08T12:02:21;7.72;;;4.50;;
45887;SDS011;31595;51.418;7.572;2023-02-08T12:04:54;9.55;;;4.47;;
45887;SDS011;31595;51.418;7.572;2023-02-08T12:07:34;6.30;;;4.90;;
45887;SDS011;31595;51.418;7.572;2023-02-08T12:13:02;6.43;;;5.90;;
45887;SDS011;31595;51.418;7.572;2023-02-08T12:15:42;7.35;;;6.65;;
45887;SDS011;31595;51.418;7.572;2023-02-08T12:18:31;8.68;;;7.88;;
45887;SDS011;31595;51.418;7.572;2023-02-08T12:21:11;16.02;;;15.00;;
45887;SDS011;31595;51.418;7.572;2023-02-08T12:23:46;9.80;;;9.20;;
45887;SDS011;31595;51.418;7.572;2023-02-08T12:26:17;10.60;;;9.85;;
45887;SDS011;31595;51.418;7.572;2023-02-08T12:29:02;16.88;;;15.98;;
45887;SDS011;31595;51.418;7.572;2023-02-08T12:31:47;11.15;;;10.45;;
45887;SDS011;31595;51.418;7.572;2023-02-08T12:34:27;16.35;;;15.55;;
45887;SDS011;31595;51.418;7.572;2023-02-08T12:37:09;11.77;;;9.93;;
45887;SDS011;31595;51.418;7.572;2023-02-08T12:40:09;12.70;;;11.60;;
45887;SDS011;31595;51.418;7.572;2023-02-08T12:43:06;19.13;;;18.17;;
45887;SDS011;31595;51.418;7.572;2023-02-08T12:45:53;14.75;;;13.85;;
45887;SDS011;31595;51.418;7.572;2023-02-08T12:48:33;19.65;;;18.45;;
45887;SDS011;31595;51.418;7.572;2023-02-08T12:51:11;18.45;;;17.45;;
45887;SDS011;31595;51.418;7.572;2023-02-08T12:53:51;18.20;;;17.40;;
45887;SDS011;31595;51.418;7.572;2023-02-08T12:56:24;17.45;;;16.65;;
45887;SDS011;31595;51.418;7.572;2023-02-08T12:58:57;17.38;;;15.88;;
45887;SDS011;31595;51.418;7.572;2023-02-08T13:01:28;16.15;;;14.75;;
45887;SDS011;31595;51.418;7.572;2023-02-08T13:03:59;31.88;;;30.50;;
45887;SDS011;31595;51.418;7.572;2023-02-08T13:06:32;16.23;;;15.13;;
45887;SDS011;31595;51.418;7.572;2023-02-08T13:09:07;26.00;;;24.60;;
45887;SDS011;31595;51.418;7.572;2023-02-08T13:11:47;22.08;;;20.98;;
45887;SDS011;31595;51.418;7.572;2023-02-08T13:14:22;16.02;;;15.13;;
45887;SDS011;31595;51.418;7.572;2023-02-08T13:17:04;14.10;;;13.40;;
45887;SDS011;31595;51.418;7.572;2023-02-08T13:19:41;14.80;;;13.68;;
45887;SDS011;31595;51.418;7.572;2023-02-08T13:22:16;13.02;;;12.30;;
45887;SDS011;31595;51.418;7.572;2023-02-08T13:27:15;12.25;;;11.55;;
45887;SDS011;31595;51.418;7.572;2023-02-08T13:29:47;11.35;;;10.65;;
45887;SDS011;31595;51.418;7.572;2023-02-08T13:32:18;18.98;;;18.08;;
45887;SDS011;31595;51.418;7.572;2023-02-08T13:34:55;9.80;;;9.20;;
45887;SDS011;31595;51.418;7.572;2023-02-08T13:37:27;8.20;;;7.55;;
45887;SDS011;31595;51.418;7.572;2023-02-08T13:39:58;9.70;;;9.10;;
45887;SDS011;31595;51.418;7.572;2023-02-08T13:42:29;7.63;;;7.13;;
45887;SDS011;31595;51.418;7.572;2023-02-08T13:45:01;7.45;;;6.75;;
45887;SDS011;31595;51.418;7.572;2023-02-08T13:47:31;7.68;;;7.07;;
45887;SDS011;31595;51.418;7.572;2023-02-08T13:50:08;6.40;;;5.90;;
45887;SDS011;31595;51.418;7.572;2023-02-08T13:53:08;10.45;;;8.18;;
45887;SDS011;31595;51.418;7.572;2023-02-08T13:55:49;6.38;;;5.30;;
45887;SDS011;31595;51.418;7.572;2023-02-08T13:58:28;6.22;;;5.28;;
45887;SDS011;31595;51.418;7.572;2023-02-08T14:06:53;9.68;;;7.25;;
45887;SDS011;31595;51.418;7.572;2023-02-08T14:09:25;5.88;;;5.22;;
45887;SDS011;31595;51.418;7.572;2023-02-08T14:11:59;6.18;;;5.47;;
45887;SDS011;31595;51.418;7.572;2023-02-08T14:14:32;5.30;;;4.85;;
45887;SDS011;31595;51.418;7.572;2023-02-08T14:17:16;4.60;;;4.20;;
45887;SDS011;31595;51.418;7.572;2023-02-08T14:19:54;4.25;;;3.85;;
45887;SDS011;31595;51.418;7.572;2023-02-08T14:22:23;3.67;;;3.28;;
45887;SDS011;31595;51.418;7.572;2023-02-08T14:24:59;5.60;;;3.40;;
45887;SDS011;31595;51.418;7.572;2023-02-08T14:27:30;4.15;;;2.85;;
45887;SDS011;31595;51.418;7.572;2023-02-08T14:30:05;3.20;;;2.90;;
45887;SDS011;31595;51.418;7.572;2023-02-08T14:32:36;7.22;;;4.68;;
45887;SDS011;31595;51.418;7.572;2023-02-08T14:35:06;7.03;;;5.22;;
45887;SDS011;31595;51.418;7.572;2023-02-08T14:37:35;5.28;;;2.97;;
45887;SDS011;31595;51.418;7.572;2023-02-08T14:49:05;3.50;;;2.72;;
45887;SDS011;31595;51.418;7.572;2023-02-08T14:51:37;4.40;;;2.83;;
45887;SDS011;31595;51.418;7.572;2023-02-08T14:54:16;5.18;;;3.63;;
45887;SDS011;31595;51.418;7.572;2023-02-08T14:56:50;4.43;;;2.83;;
45887;SDS011;31595;51.418;7.572;2023-02-08T14:59:23;4.10;;;2.97;;
45887;SDS011;31595;51.418;7.572;2023-02-08T15:01:53;4.13;;;3.33;;
45887;SDS011;31595;51.418;7.572;2023-02-08T15:04:24;7.97;;;5.32;;
45887;SDS011;31595;51.418;7.572;2023-02-08T15:07:08;5.13;;;3.10;;
45887;SDS011;31595;51.418;7.572;2023-02-08T15:09:45;5.70;;;3.10;;
45887;SDS011;31595;51.418;7.572;2023-02-08T15:12:14;3.05;;;2.60;;
45887;SDS011;31595;51.418;7.572;2023-02-08T15:14:48;3.30;;;2.50;;
45887;SDS011;31595;51.418;7.572;2023-02-08T15:17:26;6.30;;;3.35;;
45887;SDS011;31595;51.418;7.572;2023-02-08T15:19:59;6.72;;;3.67;;
45887;SDS011;31595;51.418;7.572;2023-02-08T15:22:33;4.65;;;2.92;;
45887;SDS011;31595;51.418;7.572;2023-02-08T15:25:09;5.22;;;3.03;;
45887;SDS011;31595;51.418;7.572;2023-02-08T15:27:46;6.30;;;3.13;;
45887;SDS011;31595;51.418;7.572;2023-02-08T15:30:21;5.60;;;3.22;;
45887;SDS011;31595;51.418;7.572;2023-02-08T15:32:49;5.90;;;3.47;;
45887;SDS011;31595;51.418;7.572;2023-02-08T15:35:18;5.18;;;3.33;;
45887;SDS011;31595;51.418;7.572;2023-02-08T15:37:48;5.68;;;3.42;;
45887;SDS011;31595;51.418;7.572;2023-02-08T15:40:23;8.60;;;4.35;;
45887;SDS011;31595;51.418;7.572;2023-02-08T15:42:52;8.57;;;4.70;;